Portada
METAR-TAF:

METAR-TAF

Aeroports :

Salak

Maroua, Camerun

latitud: 10-27N, longitud: 014-15E, altitud: 423 m

Observació

L'informe es va fer fa 4 hores i 9 minuts, a les 16:00 UTC
Vent 4 kt del Oest, variant entre Sud/Sud-Oest i Oest/Nord-Oest
Temperatura 28°C
Humitat 70%
Pressió 1013 hPa
Visibilitat 10 km o més
Escasses núvols a una alçada de 3000 ft
Escasses núvols a una alçada de 3500 ft, Cumulus congestus.

METAR: FKKL 231600Z 26004KT 210V300 9999 FEW030 FEW035TCU 28/22 Q1013

Hora: 21:09 (20:09 UTC)

Pronòstic

L'informe es va fer fa 15 hores i 9 minuts, a les 05:00 UTC
Pronòstic vàlid del 23 a les 06 UTC al 23 a les 18 UTC
Vent 7 kt del Oest
Visibilitat 10 km o més
Escasses núvols a una alçada de 4000 ft
Temporalment
l' 23 a les 15 UTC al 23 a les 18 UTC
Cel ennuvolat a una alçada de 1400 ft
Escasses núvols a una alçada de 3500 ft, Cumulonimbus.
tempesta

TAF: FKKL 230500Z 2306/2318 27007KT 9999 FEW040 TEMPO 2315/2318 TS BKN014 FEW035CB

Observacions i pronòstics meteorològics de més de 4000 aeroports (METAR i TAF).

Les estacions disponibles són els punts grocs i vermells al mapa.

Posi el ratolí al punt desitjat per veure el nom de l'estació.

Feu clic per veure les observacions i els pronòstics meteorològics.

Per canviar el mapa: feu clic els botons verds amb una creu de color negre per apropar; al botó verd amb un guió per allunyar la imatge; o en les fletxes verdes per a mapes adjacents.


METAR-TAF: